createdAt,value
2023-09-08T00:01:32.350Z,3.85
2023-09-08T00:04:23.192Z,2.28
2023-09-08T00:07:13.985Z,3.13
2023-09-08T00:10:05.268Z,2.83
2023-09-08T00:12:56.015Z,2.67
2023-09-08T00:15:46.721Z,3.63
2023-09-08T00:18:37.442Z,3.03
2023-09-08T00:21:28.608Z,2.28
2023-09-08T00:24:19.742Z,2.92
2023-09-08T00:27:11.209Z,3.47
2023-09-08T00:30:03.174Z,3.97
2023-09-08T00:32:54.201Z,3.00
2023-09-08T00:35:51.164Z,2.63
2023-09-08T00:38:42.642Z,4.07
2023-09-08T00:41:34.465Z,3.10
2023-09-08T00:44:25.305Z,3.22
2023-09-08T00:47:16.345Z,3.15
2023-09-08T00:50:08.038Z,3.03
2023-09-08T00:52:58.909Z,3.60
2023-09-08T00:55:50.310Z,2.85
2023-09-08T00:58:41.254Z,3.13
2023-09-08T01:01:32.740Z,3.33
2023-09-08T01:04:23.555Z,3.25
2023-09-08T01:07:16.027Z,2.60
2023-09-08T01:10:07.503Z,3.35
2023-09-08T01:12:58.735Z,3.63
2023-09-08T01:15:50.666Z,4.00
2023-09-08T01:18:41.932Z,3.08
2023-09-08T01:21:44.709Z,3.35
2023-09-08T01:25:21.185Z,3.20
2023-09-08T01:28:13.466Z,3.25
2023-09-08T01:31:05.004Z,2.42
2023-09-08T01:33:56.697Z,2.75
2023-09-08T01:36:47.460Z,4.13
2023-09-08T01:39:38.181Z,2.53
2023-09-08T01:42:28.985Z,3.35
2023-09-08T01:45:19.786Z,3.97
2023-09-08T01:48:10.618Z,3.45
2023-09-08T01:51:01.324Z,2.88
2023-09-08T01:53:52.205Z,5.18
2023-09-08T01:56:42.943Z,5.00
2023-09-08T01:59:33.738Z,4.00
2023-09-08T02:02:24.542Z,5.47
2023-09-08T02:05:15.962Z,3.22
2023-09-08T02:08:06.898Z,3.63
2023-09-08T02:10:57.599Z,4.95
2023-09-08T02:13:48.415Z,3.40
2023-09-08T02:16:39.089Z,4.95
2023-09-08T02:19:29.906Z,3.78
2023-09-08T02:22:20.700Z,4.18
2023-09-08T02:25:11.438Z,4.05
2023-09-08T02:28:02.219Z,4.03
2023-09-08T02:30:53.017Z,5.30
2023-09-08T02:33:43.884Z,3.08
2023-09-08T02:36:34.680Z,5.05
2023-09-08T02:39:28.102Z,4.65
2023-09-08T02:42:18.860Z,3.85
2023-09-08T02:45:09.964Z,4.43
2023-09-08T02:48:00.699Z,4.63
2023-09-08T02:50:51.395Z,4.05
2023-09-08T02:53:42.365Z,3.03
2023-09-08T02:56:33.141Z,3.88
2023-09-08T02:59:23.800Z,3.67
2023-09-08T03:02:14.687Z,4.05
2023-09-08T03:05:05.618Z,3.00
2023-09-08T03:07:56.358Z,3.08
2023-09-08T03:10:47.099Z,3.25
2023-09-08T03:13:37.806Z,3.10
2023-09-08T03:16:28.561Z,4.25
2023-09-08T03:19:19.353Z,2.72
2023-09-08T03:22:10.035Z,3.47
2023-09-08T03:25:00.732Z,3.20
2023-09-08T03:27:51.458Z,2.80
2023-09-08T03:30:42.183Z,3.70
2023-09-08T03:33:33.151Z,2.78
2023-09-08T03:36:24.082Z,3.42
2023-09-08T03:39:14.796Z,3.78
2023-09-08T03:42:05.650Z,3.42
2023-09-08T03:44:56.331Z,2.28
2023-09-08T03:47:47.054Z,2.42
2023-09-08T03:50:37.771Z,3.17
2023-09-08T03:53:28.478Z,3.17
2023-09-08T03:56:19.314Z,3.20
2023-09-08T03:59:10.010Z,4.15
2023-09-08T04:02:02.238Z,3.47
2023-09-08T04:04:52.943Z,4.18
2023-09-08T04:07:43.883Z,4.07
2023-09-08T04:10:34.782Z,3.92
2023-09-08T04:13:25.468Z,3.05
2023-09-08T04:16:16.733Z,4.00
2023-09-08T04:19:07.488Z,2.92
2023-09-08T04:21:58.147Z,3.47
2023-09-08T04:24:48.886Z,3.60
2023-09-08T04:27:39.745Z,3.35
2023-09-08T04:30:30.432Z,4.55
2023-09-08T04:33:21.227Z,3.63
2023-09-08T04:36:12.297Z,3.33
2023-09-08T04:39:03.072Z,2.97
2023-09-08T04:41:53.786Z,3.50
2023-09-08T04:44:46.134Z,4.75
2023-09-08T04:47:38.785Z,3.60
2023-09-08T04:50:29.557Z,4.20
2023-09-08T04:53:20.256Z,4.55
2023-09-08T04:56:11.079Z,4.15
2023-09-08T04:59:02.212Z,4.65
2023-09-08T05:01:53.144Z,3.35
2023-09-08T05:04:43.813Z,3.63
2023-09-08T05:07:34.527Z,5.30
2023-09-08T05:10:26.246Z,4.40
2023-09-08T05:13:30.260Z,4.57
2023-09-08T05:16:37.376Z,4.88
2023-09-08T05:19:28.370Z,3.95
2023-09-08T05:22:19.433Z,4.78
2023-09-08T05:25:10.656Z,4.70
2023-09-08T05:28:01.826Z,3.42
2023-09-08T05:30:54.688Z,5.50
2023-09-08T05:33:45.569Z,4.43
2023-09-08T05:36:41.018Z,3.88
2023-09-08T05:39:31.922Z,4.50
2023-09-08T05:42:22.674Z,3.90
2023-09-08T05:45:13.395Z,2.92
2023-09-08T05:48:04.474Z,3.22
2023-09-08T05:50:55.691Z,3.55
2023-09-08T05:53:46.508Z,3.35
2023-09-08T05:56:39.393Z,3.45
2023-09-08T05:59:30.582Z,4.30
2023-09-08T06:02:21.301Z,3.22
2023-09-08T06:05:12.064Z,3.25
2023-09-08T06:08:07.595Z,3.53
2023-09-08T06:10:58.752Z,3.15
2023-09-08T06:13:49.483Z,3.58
2023-09-08T06:16:41.129Z,2.63
2023-09-08T06:19:32.058Z,4.10
2023-09-08T06:22:23.261Z,3.15
2023-09-08T06:25:14.094Z,2.60
2023-09-08T06:28:05.244Z,2.70
2023-09-08T06:30:56.344Z,2.70
2023-09-08T06:33:47.311Z,3.15
2023-09-08T06:36:38.384Z,2.00
2023-09-08T06:39:29.580Z,1.95
2023-09-08T06:42:20.302Z,2.92
2023-09-08T06:45:11.229Z,2.92
2023-09-08T06:48:02.330Z,2.50
2023-09-08T06:50:57.490Z,2.50
2023-09-08T06:53:57.539Z,2.47
2023-09-08T06:56:48.243Z,2.42
2023-09-08T06:59:39.006Z,2.53
2023-09-08T07:02:29.712Z,2.05
2023-09-08T07:05:20.692Z,2.22
2023-09-08T07:08:11.562Z,1.95
2023-09-08T07:11:02.331Z,2.40
2023-09-08T07:13:53.021Z,2.25
2023-09-08T07:16:43.994Z,1.45
2023-09-08T07:19:34.788Z,2.08
2023-09-08T07:22:25.547Z,1.35
2023-09-08T07:25:16.291Z,2.25
2023-09-08T07:28:07.101Z,2.03
2023-09-08T07:31:05.842Z,1.90
2023-09-08T07:33:56.660Z,1.83
2023-09-08T07:36:47.315Z,2.38
2023-09-08T07:39:38.000Z,2.30
2023-09-08T07:42:28.708Z,2.40
2023-09-08T07:45:19.434Z,1.35
2023-09-08T07:48:10.275Z,1.90
2023-09-08T07:51:01.347Z,1.85
2023-09-08T07:53:52.996Z,2.40
2023-09-08T07:56:43.785Z,2.08
2023-09-08T07:59:36.016Z,1.48
2023-09-08T08:02:28.564Z,1.92
2023-09-08T08:05:19.414Z,1.50
2023-09-08T08:08:10.855Z,1.55
2023-09-08T08:11:01.579Z,1.08
2023-09-08T08:13:52.732Z,1.98
2023-09-08T08:16:43.488Z,2.10
2023-09-08T08:19:34.347Z,1.23
2023-09-08T08:22:26.486Z,1.70
2023-09-08T08:25:17.301Z,1.58
2023-09-08T08:28:07.985Z,2.67
2023-09-08T08:30:58.853Z,1.40
2023-09-08T08:33:49.808Z,1.25
2023-09-08T08:36:40.581Z,2.58
2023-09-08T08:39:31.274Z,1.80
2023-09-08T08:42:23.686Z,1.80
2023-09-08T08:45:15.321Z,1.42
2023-09-08T08:48:07.230Z,1.20
2023-09-08T08:51:00.107Z,1.30
2023-09-08T08:53:50.874Z,1.30
2023-09-08T08:56:42.645Z,1.40
2023-09-08T08:59:33.776Z,1.63
2023-09-08T09:02:27.188Z,1.70
2023-09-08T09:05:18.464Z,1.05
2023-09-08T09:08:10.634Z,1.20
2023-09-08T09:11:01.423Z,1.35
2023-09-08T09:13:52.115Z,1.77
2023-09-08T09:16:44.343Z,1.98
2023-09-08T09:19:36.713Z,1.35
2023-09-08T09:22:38.269Z,2.70
2023-09-08T09:25:31.920Z,1.45
2023-09-08T09:28:22.939Z,1.25
2023-09-08T09:31:13.821Z,1.60
2023-09-08T09:34:06.420Z,1.85
2023-09-08T09:36:57.957Z,1.90
2023-09-08T09:39:53.786Z,1.38
2023-09-08T09:42:44.686Z,1.52
2023-09-08T09:45:36.746Z,1.70
2023-09-08T09:48:29.115Z,1.70
2023-09-08T09:51:21.109Z,1.67
2023-09-08T09:54:13.092Z,1.33
2023-09-08T09:57:04.899Z,1.60
2023-09-08T09:59:57.342Z,1.20
2023-09-08T10:02:48.541Z,1.40
2023-09-08T10:05:39.335Z,1.10
2023-09-08T10:08:34.215Z,1.40
2023-09-08T10:11:29.405Z,1.00
2023-09-08T10:14:20.217Z,0.88
2023-09-08T10:17:18.199Z,1.58
2023-09-08T10:20:14.265Z,1.63
2023-09-08T10:23:37.949Z,1.20
2023-09-08T10:26:30.693Z,0.95
2023-09-08T10:29:23.369Z,1.42
2023-09-08T10:32:15.034Z,1.70
2023-09-08T10:35:07.227Z,0.93
2023-09-08T10:38:27.731Z,1.38
2023-09-08T10:41:18.559Z,1.10
2023-09-08T10:44:10.069Z,0.70
2023-09-08T10:47:00.835Z,1.60
2023-09-08T10:49:56.163Z,0.77
2023-09-08T10:53:15.702Z,1.08
2023-09-08T10:56:18.614Z,0.80
2023-09-08T10:59:11.570Z,1.00
2023-09-08T11:02:05.329Z,1.10
2023-09-08T11:04:56.555Z,0.95
2023-09-08T11:07:50.380Z,0.88
2023-09-08T11:10:42.080Z,1.30
2023-09-08T11:13:32.758Z,1.33
2023-09-08T11:16:30.543Z,1.45
2023-09-08T11:19:21.884Z,0.98
2023-09-08T11:22:12.701Z,0.95
2023-09-08T11:25:07.107Z,0.95
2023-09-08T11:27:58.645Z,1.10
2023-09-08T11:30:50.741Z,1.90
2023-09-08T11:33:42.131Z,1.55
2023-09-08T11:36:32.978Z,1.17
2023-09-08T11:39:26.700Z,1.25
2023-09-08T11:42:18.483Z,0.82
2023-09-08T11:45:09.688Z,1.40
2023-09-08T11:48:00.537Z,0.95
2023-09-08T11:50:54.776Z,0.57
2023-09-08T11:53:46.118Z,1.05
2023-09-08T11:56:38.028Z,1.00
2023-09-08T11:59:34.334Z,0.80
2023-09-08T12:02:25.088Z,0.73
2023-09-08T12:05:29.268Z,1.35
2023-09-08T12:08:20.040Z,0.80
2023-09-08T12:11:10.856Z,1.65
2023-09-08T12:14:02.853Z,1.30
2023-09-08T12:17:08.984Z,1.10
2023-09-08T12:19:59.851Z,1.48
2023-09-08T12:22:52.358Z,0.95
2023-09-08T12:25:51.431Z,0.77
2023-09-08T12:28:42.188Z,1.55
2023-09-08T12:31:33.173Z,1.20
2023-09-08T12:34:24.049Z,1.35
2023-09-08T12:37:14.775Z,1.45
2023-09-08T12:40:06.633Z,1.00
2023-09-08T12:43:02.948Z,0.98
2023-09-08T12:46:00.850Z,0.65
2023-09-08T12:48:51.507Z,0.98
2023-09-08T12:51:43.074Z,1.60
2023-09-08T12:54:33.897Z,0.95
2023-09-08T12:57:24.670Z,1.30
2023-09-08T13:00:15.590Z,1.10
2023-09-08T13:03:06.569Z,1.25
2023-09-08T13:05:57.280Z,0.60
2023-09-08T13:08:47.930Z,1.13
2023-09-08T13:11:38.764Z,1.25
2023-09-08T13:14:29.432Z,1.05
2023-09-08T13:17:20.202Z,0.98
2023-09-08T13:20:11.838Z,1.63
2023-09-08T13:23:02.557Z,0.70
2023-09-08T13:25:53.261Z,1.27
2023-09-08T13:28:44.499Z,1.50
2023-09-08T13:31:35.279Z,1.10
2023-09-08T13:34:26.269Z,0.82
2023-09-08T13:37:17.031Z,0.90
2023-09-08T13:40:09.320Z,0.85
2023-09-08T13:43:01.571Z,1.10
2023-09-08T13:45:52.299Z,1.45
2023-09-08T13:48:44.139Z,1.27
2023-09-08T13:51:38.405Z,2.17
2023-09-08T13:54:30.397Z,1.38
2023-09-08T13:57:23.083Z,0.82
2023-09-08T14:00:17.151Z,0.80
2023-09-08T14:03:13.395Z,1.48
2023-09-08T14:06:11.611Z,0.90
2023-09-08T14:09:40.410Z,1.13
2023-09-08T14:15:08.649Z,0.90
2023-09-08T14:17:59.381Z,1.10
2023-09-08T14:20:50.097Z,1.05
2023-09-08T14:23:41.858Z,1.42
2023-09-08T14:26:32.761Z,1.00
2023-09-08T14:29:24.547Z,1.48
2023-09-08T14:32:15.459Z,1.63
2023-09-08T14:35:06.911Z,1.50
2023-09-08T14:37:57.666Z,1.73
2023-09-08T14:41:00.330Z,1.10
2023-09-08T14:43:51.083Z,0.88
2023-09-08T14:46:41.901Z,1.00
2023-09-08T14:49:32.743Z,1.17
2023-09-08T14:52:23.799Z,1.33
2023-09-08T14:55:14.869Z,0.95
2023-09-08T14:58:05.580Z,1.20
2023-09-08T15:00:56.437Z,1.65
2023-09-08T15:03:47.454Z,1.10
2023-09-08T15:06:38.380Z,0.85
2023-09-08T15:09:29.146Z,0.95
2023-09-08T15:12:19.963Z,0.90
2023-09-08T15:15:11.116Z,0.50
2023-09-08T15:18:01.878Z,0.80
2023-09-08T15:20:54.138Z,1.20
2023-09-08T15:23:45.372Z,1.42
2023-09-08T15:26:36.255Z,1.00
2023-09-08T15:29:27.302Z,1.05
2023-09-08T15:32:18.006Z,2.53
2023-09-08T15:35:09.384Z,1.88
2023-09-08T15:38:00.173Z,0.70
2023-09-08T15:41:09.442Z,1.00
2023-09-08T15:44:00.296Z,1.58
2023-09-08T15:46:50.996Z,1.27
2023-09-08T15:49:42.804Z,1.23
2023-09-08T15:52:33.521Z,1.77
2023-09-08T15:55:25.105Z,1.05
2023-09-08T15:58:15.811Z,1.40
2023-09-08T16:01:07.846Z,1.20
2023-09-08T16:03:58.728Z,1.15
2023-09-08T16:06:49.641Z,1.00
2023-09-08T16:09:40.328Z,1.10
2023-09-08T16:12:32.744Z,1.33
2023-09-08T16:15:23.426Z,1.63
2023-09-08T16:18:14.256Z,1.95
2023-09-08T16:21:05.012Z,2.00
2023-09-08T16:23:55.964Z,1.30
2023-09-08T16:26:49.958Z,1.52
2023-09-08T16:29:40.949Z,2.28
2023-09-08T16:32:31.678Z,1.65
2023-09-08T16:35:22.448Z,1.45
2023-09-08T16:38:13.939Z,1.83
2023-09-08T16:41:04.663Z,2.17
2023-09-08T16:43:55.346Z,1.40
2023-09-08T16:46:46.023Z,1.92
2023-09-08T16:49:36.865Z,2.10
2023-09-08T16:52:27.534Z,1.90
2023-09-08T16:55:18.231Z,1.90
2023-09-08T16:58:08.881Z,2.03
2023-09-08T17:00:59.612Z,2.03
2023-09-08T17:03:50.602Z,1.98
2023-09-08T17:06:41.361Z,2.45
2023-09-08T17:09:32.161Z,1.65
2023-09-08T17:12:23.444Z,1.70
2023-09-08T17:15:14.265Z,3.38
2023-09-08T17:18:05.216Z,4.30
2023-09-08T17:20:59.334Z,3.72
2023-09-08T17:23:50.290Z,3.97
2023-09-08T17:26:41.039Z,4.97
2023-09-08T17:29:33.153Z,4.35
2023-09-08T17:32:23.982Z,5.13
2023-09-08T17:35:15.030Z,4.00
2023-09-08T17:38:06.406Z,4.18
2023-09-08T17:40:58.522Z,6.03
2023-09-08T17:43:50.348Z,4.50
2023-09-08T17:46:41.213Z,5.53
2023-09-08T17:49:31.987Z,5.55
2023-09-08T17:52:22.718Z,4.53
2023-09-08T17:55:14.822Z,4.18
2023-09-08T17:58:05.622Z,5.43
2023-09-08T18:00:56.348Z,10.30
2023-09-08T18:03:48.488Z,14.52
2023-09-08T18:06:39.407Z,17.13
2023-09-08T18:09:30.466Z,12.38
2023-09-08T18:12:22.342Z,8.38
2023-09-08T18:15:13.080Z,12.02
2023-09-08T18:18:03.991Z,8.98
2023-09-08T18:20:54.877Z,9.05
2023-09-08T18:23:47.135Z,8.40
2023-09-08T18:26:38.219Z,8.13
2023-09-08T18:29:29.844Z,4.47
2023-09-08T18:32:20.600Z,5.88
2023-09-08T18:35:11.418Z,5.25
2023-09-08T18:38:02.406Z,7.88
2023-09-08T18:40:53.115Z,4.90
2023-09-08T18:43:44.915Z,4.88
2023-09-08T18:46:35.672Z,3.78
2023-09-08T18:49:26.562Z,3.20
2023-09-08T18:52:17.266Z,3.13
2023-09-08T18:55:08.572Z,3.17
2023-09-08T18:57:59.297Z,3.92
2023-09-08T19:00:50.095Z,3.75
2023-09-08T19:03:43.871Z,2.92
2023-09-08T19:06:34.602Z,3.03
2023-09-08T19:09:25.307Z,3.08
2023-09-08T19:12:15.982Z,3.20
2023-09-08T19:15:07.404Z,3.65
2023-09-08T19:17:58.186Z,4.05
2023-09-08T19:20:48.920Z,3.60
2023-09-08T19:23:39.651Z,4.90
2023-09-08T19:26:30.475Z,4.05
2023-09-08T19:29:21.178Z,4.60
2023-09-08T19:32:11.843Z,4.82
2023-09-08T19:35:02.516Z,3.28
2023-09-08T19:37:58.854Z,2.70
2023-09-08T19:40:49.553Z,3.85
2023-09-08T19:43:40.975Z,3.08
2023-09-08T19:46:36.921Z,3.20
2023-09-08T19:49:27.691Z,3.67
2023-09-08T19:52:18.761Z,3.45
2023-09-08T19:55:10.007Z,3.78
2023-09-08T19:58:01.201Z,4.15
2023-09-08T20:00:51.999Z,3.08
2023-09-08T20:03:42.844Z,4.57
2023-09-08T20:06:33.617Z,4.07
2023-09-08T20:09:27.064Z,4.20
2023-09-08T20:12:17.733Z,4.00
2023-09-08T20:15:08.784Z,4.65
2023-09-08T20:18:00.448Z,4.32
2023-09-08T20:20:56.425Z,3.50
2023-09-08T20:23:47.298Z,3.75
2023-09-08T20:26:38.044Z,3.00
2023-09-08T20:29:29.575Z,3.80
2023-09-08T20:32:20.677Z,3.70
2023-09-08T20:35:11.444Z,3.05
2023-09-08T20:38:02.231Z,3.08
2023-09-08T20:40:53.589Z,2.70
2023-09-08T20:43:44.490Z,3.05
2023-09-08T20:46:35.282Z,3.53
2023-09-08T20:49:26.089Z,2.80
2023-09-08T20:52:16.787Z,3.85
2023-09-08T20:55:10.452Z,3.03
2023-09-08T20:58:01.125Z,3.22
2023-09-08T21:00:51.901Z,3.13
2023-09-08T21:03:42.599Z,3.13
2023-09-08T21:06:33.374Z,3.03
2023-09-08T21:09:24.177Z,3.20
2023-09-08T21:12:14.982Z,2.88
2023-09-08T21:15:06.762Z,2.72
2023-09-08T21:17:57.570Z,3.25
2023-09-08T21:20:49.247Z,2.22
2023-09-08T21:23:40.946Z,2.55
2023-09-08T21:26:31.736Z,2.72
2023-09-08T21:29:22.469Z,3.90
2023-09-08T21:32:13.171Z,3.38
2023-09-08T21:35:05.438Z,3.67
2023-09-08T21:37:56.239Z,4.10
2023-09-08T21:40:47.037Z,2.53
2023-09-08T21:43:38.605Z,3.63
2023-09-08T21:46:32.464Z,2.72
2023-09-08T21:49:23.417Z,2.88
2023-09-08T21:52:18.783Z,2.85
2023-09-08T21:55:20.481Z,3.47
2023-09-08T21:58:11.325Z,2.80
2023-09-08T22:01:02.147Z,2.78
2023-09-08T22:03:53.154Z,2.88
2023-09-08T22:06:44.045Z,3.25
2023-09-08T22:09:34.720Z,3.08
2023-09-08T22:12:25.387Z,3.85
2023-09-08T22:15:16.323Z,2.38
2023-09-08T22:18:07.084Z,3.63
2023-09-08T22:20:57.802Z,3.03
2023-09-08T22:23:51.881Z,4.18
2023-09-08T22:26:42.554Z,3.13
2023-09-08T22:29:33.215Z,3.10
2023-09-08T22:32:23.946Z,4.13
2023-09-08T22:35:15.212Z,2.85
2023-09-08T22:38:05.969Z,3.60
2023-09-08T22:40:56.709Z,2.95
2023-09-08T22:43:47.514Z,2.63
2023-09-08T22:46:38.337Z,2.85
2023-09-08T22:49:29.589Z,3.38
2023-09-08T22:52:20.814Z,2.90
2023-09-08T22:55:23.387Z,2.85
2023-09-08T22:58:16.382Z,2.90
2023-09-08T23:01:07.819Z,2.60
2023-09-08T23:03:58.589Z,2.03
2023-09-08T23:06:49.448Z,2.67
2023-09-08T23:09:42.367Z,3.63
2023-09-08T23:12:33.070Z,3.38
2023-09-08T23:15:25.990Z,2.97
2023-09-08T23:18:16.812Z,3.40
2023-09-08T23:21:07.857Z,1.90
2023-09-08T23:23:59.084Z,2.10
2023-09-08T23:26:49.946Z,2.35
2023-09-08T23:29:40.735Z,2.45
2023-09-08T23:32:31.901Z,3.20
2023-09-08T23:35:22.861Z,2.05
2023-09-08T23:38:13.623Z,2.90
2023-09-08T23:41:04.993Z,2.75
2023-09-08T23:43:55.684Z,2.58
2023-09-08T23:46:46.456Z,2.00
2023-09-08T23:49:37.178Z,2.50
2023-09-08T23:52:28.791Z,3.25
2023-09-08T23:55:19.648Z,2.25
2023-09-08T23:58:10.333Z,2.75
